sensor_id;sensor_type;location;lat;lon;timestamp;pressure;altitude;pressure_sealevel;temperature;humidity
60874;BME280;46715;40.642;-7.920;2023-04-19T00:00:06;95571.28;;;14.99;54.73
60874;BME280;46715;40.642;-7.920;2023-04-19T00:02:07;95568.19;;;14.97;54.95
60874;BME280;46715;40.642;-7.920;2023-04-19T00:04:09;95569.28;;;14.96;55.00
60874;BME280;46715;40.642;-7.920;2023-04-19T00:06:09;95573.78;;;14.95;54.86
60874;BME280;46715;40.642;-7.920;2023-04-19T00:08:10;95570.50;;;14.98;54.81
60874;BME280;46715;40.642;-7.920;2023-04-19T00:10:11;95570.81;;;14.97;54.98
60874;BME280;46715;40.642;-7.920;2023-04-19T00:12:12;95568.34;;;14.92;55.03
60874;BME280;46715;40.642;-7.920;2023-04-19T00:14:12;95578.25;;;14.86;55.24
60874;BME280;46715;40.642;-7.920;2023-04-19T00:16:13;95570.25;;;14.82;55.15
60874;BME280;46715;40.642;-7.920;2023-04-19T00:18:14;95577.94;;;14.79;55.32
60874;BME280;46715;40.642;-7.920;2023-04-19T00:20:14;95578.41;;;14.72;55.50
60874;BME280;46715;40.642;-7.920;2023-04-19T00:22:15;95573.31;;;14.67;55.74
60874;BME280;46715;40.642;-7.920;2023-04-19T00:24:16;95581.34;;;14.62;55.78
60874;BME280;46715;40.642;-7.920;2023-04-19T00:26:17;95570.38;;;14.60;56.05
60874;BME280;46715;40.642;-7.920;2023-04-19T00:28:23;95575.75;;;14.55;56.28
60874;BME280;46715;40.642;-7.920;2023-04-19T00:30:24;95575.31;;;14.53;56.35
60874;BME280;46715;40.642;-7.920;2023-04-19T00:32:25;95572.38;;;14.45;56.68
60874;BME280;46715;40.642;-7.920;2023-04-19T00:34:26;95570.06;;;14.44;56.92
60874;BME280;46715;40.642;-7.920;2023-04-19T00:36:29;95568.34;;;14.39;56.88
60874;BME280;46715;40.642;-7.920;2023-04-19T00:38:30;95573.91;;;14.38;57.16
60874;BME280;46715;40.642;-7.920;2023-04-19T00:40:30;95565.09;;;14.33;57.35
60874;BME280;46715;40.642;-7.920;2023-04-19T00:42:32;95565.56;;;14.27;57.75
60874;BME280;46715;40.642;-7.920;2023-04-19T00:44:33;95568.03;;;14.23;57.91
60874;BME280;46715;40.642;-7.920;2023-04-19T00:46:35;95566.03;;;14.20;58.17
60874;BME280;46715;40.642;-7.920;2023-04-19T00:48:35;95561.38;;;14.17;57.99
60874;BME280;46715;40.642;-7.920;2023-04-19T00:50:37;95562.50;;;14.16;58.33
60874;BME280;46715;40.642;-7.920;2023-04-19T00:52:38;95563.06;;;14.13;58.28
60874;BME280;46715;40.642;-7.920;2023-04-19T00:54:39;95566.94;;;14.07;58.31
60874;BME280;46715;40.642;-7.920;2023-04-19T00:56:43;95560.00;;;14.02;58.51
60874;BME280;46715;40.642;-7.920;2023-04-19T00:58:44;95566.94;;;13.98;58.73
60874;BME280;46715;40.642;-7.920;2023-04-19T01:00:45;95561.22;;;13.96;58.80
60874;BME280;46715;40.642;-7.920;2023-04-19T01:02:46;95561.69;;;13.98;58.70
60874;BME280;46715;40.642;-7.920;2023-04-19T01:04:46;95553.81;;;13.98;59.18
60874;BME280;46715;40.642;-7.920;2023-04-19T01:06:47;95559.06;;;13.98;58.95
60874;BME280;46715;40.642;-7.920;2023-04-19T01:08:49;95555.34;;;13.99;58.85
60874;BME280;46715;40.642;-7.920;2023-04-19T01:10:50;95551.34;;;14.02;58.75
60874;BME280;46715;40.642;-7.920;2023-04-19T01:12:50;95547.97;;;14.01;58.85
60874;BME280;46715;40.642;-7.920;2023-04-19T01:14:51;95549.81;;;14.01;58.53
60874;BME280;46715;40.642;-7.920;2023-04-19T01:16:52;95549.03;;;14.00;58.59
60874;BME280;46715;40.642;-7.920;2023-04-19T01:18:53;95540.88;;;14.02;58.13
60874;BME280;46715;40.642;-7.920;2023-04-19T01:20:54;95547.97;;;14.01;58.10
60874;BME280;46715;40.642;-7.920;2023-04-19T01:22:55;95547.19;;;14.01;58.04
60874;BME280;46715;40.642;-7.920;2023-04-19T01:24:56;95545.66;;;14.00;58.06
60874;BME280;46715;40.642;-7.920;2023-04-19T01:27:00;95542.56;;;13.97;58.24
60874;BME280;46715;40.642;-7.920;2023-04-19T01:29:01;95536.38;;;13.93;58.51
60874;BME280;46715;40.642;-7.920;2023-04-19T01:31:02;95545.16;;;13.89;58.43
60874;BME280;46715;40.642;-7.920;2023-04-19T01:33:03;95539.75;;;13.85;58.39
60874;BME280;46715;40.642;-7.920;2023-04-19T01:35:04;95534.81;;;13.84;59.06
60874;BME280;46715;40.642;-7.920;2023-04-19T01:37:04;95536.19;;;13.81;59.28
60874;BME280;46715;40.642;-7.920;2023-04-19T01:39:07;95540.22;;;13.78;59.49
60874;BME280;46715;40.642;-7.920;2023-04-19T01:41:07;95536.34;;;13.76;59.51
60874;BME280;46715;40.642;-7.920;2023-04-19T01:43:11;95532.00;;;13.71;59.71
60874;BME280;46715;40.642;-7.920;2023-04-19T01:45:12;95536.00;;;13.69;59.66
60874;BME280;46715;40.642;-7.920;2023-04-19T01:47:13;95534.78;;;13.66;60.06
60874;BME280;46715;40.642;-7.920;2023-04-19T01:49:13;95525.06;;;13.67;59.91
60874;BME280;46715;40.642;-7.920;2023-04-19T01:51:16;95537.88;;;13.68;59.58
60874;BME280;46715;40.642;-7.920;2023-04-19T01:53:17;95529.56;;;13.66;59.44
60874;BME280;46715;40.642;-7.920;2023-04-19T01:55:17;95523.53;;;13.66;59.56
60874;BME280;46715;40.642;-7.920;2023-04-19T01:57:18;95522.75;;;13.65;59.65
60874;BME280;46715;40.642;-7.920;2023-04-19T01:59:19;95522.16;;;13.68;59.88
60874;BME280;46715;40.642;-7.920;2023-04-19T02:01:20;95520.91;;;13.66;60.73
60874;BME280;46715;40.642;-7.920;2023-04-19T02:03:21;95522.44;;;13.67;60.76
60874;BME280;46715;40.642;-7.920;2023-04-19T02:05:23;95521.69;;;13.66;60.67
60874;BME280;46715;40.642;-7.920;2023-04-19T02:07:24;95520.44;;;13.63;61.05
60874;BME280;46715;40.642;-7.920;2023-04-19T02:09:25;95516.91;;;13.59;60.77
60874;BME280;46715;40.642;-7.920;2023-04-19T02:11:25;95520.88;;;13.57;60.82
60874;BME280;46715;40.642;-7.920;2023-04-19T02:13:28;95515.66;;;13.57;61.05
60874;BME280;46715;40.642;-7.920;2023-04-19T02:15:28;95516.41;;;13.57;60.90
60874;BME280;46715;40.642;-7.920;2023-04-19T02:17:29;95510.53;;;13.52;60.73
60874;BME280;46715;40.642;-7.920;2023-04-19T02:19:31;95515.03;;;13.51;60.76
60874;BME280;46715;40.642;-7.920;2023-04-19T02:21:32;95508.72;;;13.52;60.69
60874;BME280;46715;40.642;-7.920;2023-04-19T02:23:33;95514.72;;;13.53;61.33
60874;BME280;46715;40.642;-7.920;2023-04-19T02:25:34;95511.31;;;13.52;60.97
60874;BME280;46715;40.642;-7.920;2023-04-19T02:27:36;95515.31;;;13.50;61.30
60874;BME280;46715;40.642;-7.920;2023-04-19T02:29:37;95511.63;;;13.51;61.18
60874;BME280;46715;40.642;-7.920;2023-04-19T02:31:38;95508.84;;;13.47;61.58
60874;BME280;46715;40.642;-7.920;2023-04-19T02:33:38;95499.88;;;13.39;61.64
60874;BME280;46715;40.642;-7.920;2023-04-19T02:35:39;95509.09;;;13.37;61.62
60874;BME280;46715;40.642;-7.920;2023-04-19T02:37:40;95510.47;;;13.34;61.64
60874;BME280;46715;40.642;-7.920;2023-04-19T02:39:41;95504.75;;;13.32;62.06
60874;BME280;46715;40.642;-7.920;2023-04-19T02:41:42;95506.13;;;13.29;62.08
60874;BME280;46715;40.642;-7.920;2023-04-19T02:43:42;95507.66;;;13.30;61.57
60874;BME280;46715;40.642;-7.920;2023-04-19T02:45:46;95504.75;;;13.32;61.49
60874;BME280;46715;40.642;-7.920;2023-04-19T02:47:47;95502.91;;;13.33;61.44
60874;BME280;46715;40.642;-7.920;2023-04-19T02:49:47;95501.06;;;13.33;61.59
60874;BME280;46715;40.642;-7.920;2023-04-19T02:51:49;95504.59;;;13.28;62.13
60874;BME280;46715;40.642;-7.920;2023-04-19T02:53:49;95505.78;;;13.22;62.08
60874;BME280;46715;40.642;-7.920;2023-04-19T02:55:50;95507.78;;;13.17;62.67
60874;BME280;46715;40.642;-7.920;2023-04-19T02:57:53;95508.19;;;13.10;62.69
60874;BME280;46715;40.642;-7.920;2023-04-19T02:59:53;95510.47;;;13.03;62.78
60874;BME280;46715;40.642;-7.920;2023-04-19T03:01:54;95509.22;;;13.00;63.00
60874;BME280;46715;40.642;-7.920;2023-04-19T03:03:57;95511.09;;;13.00;63.22
60874;BME280;46715;40.642;-7.920;2023-04-19T03:05:58;95504.41;;;12.93;63.72
60874;BME280;46715;40.642;-7.920;2023-04-19T03:08:00;95510.56;;;12.89;63.27
60874;BME280;46715;40.642;-7.920;2023-04-19T03:10:01;95505.44;;;12.84;63.51
60874;BME280;46715;40.642;-7.920;2023-04-19T03:12:06;95505.00;;;12.82;63.33
60874;BME280;46715;40.642;-7.920;2023-04-19T03:14:06;95506.34;;;12.79;63.40
60874;BME280;46715;40.642;-7.920;2023-04-19T03:16:07;95506.97;;;12.76;63.73
60874;BME280;46715;40.642;-7.920;2023-04-19T03:18:08;95509.09;;;12.74;63.45
60874;BME280;46715;40.642;-7.920;2023-04-19T03:20:11;95516.94;;;12.74;63.60
60874;BME280;46715;40.642;-7.920;2023-04-19T03:22:11;95512.91;;;12.68;63.90
60874;BME280;46715;40.642;-7.920;2023-04-19T03:24:13;95510.22;;;12.59;64.18
60874;BME280;46715;40.642;-7.920;2023-04-19T03:26:20;95514.34;;;12.51;64.46
60874;BME280;46715;40.642;-7.920;2023-04-19T03:28:24;95513.69;;;12.45;64.49
60874;BME280;46715;40.642;-7.920;2023-04-19T03:30:46;95519.03;;;12.40;64.69
60874;BME280;46715;40.642;-7.920;2023-04-19T03:32:48;95517.59;;;12.34;64.89
60874;BME280;46715;40.642;-7.920;2023-04-19T03:34:51;95526.50;;;12.33;64.74
60874;BME280;46715;40.642;-7.920;2023-04-19T03:36:52;95519.06;;;12.26;64.93
60874;BME280;46715;40.642;-7.920;2023-04-19T03:38:52;95522.09;;;12.20;65.08
60874;BME280;46715;40.642;-7.920;2023-04-19T03:40:55;95514.84;;;12.17;65.58
60874;BME280;46715;40.642;-7.920;2023-04-19T03:42:59;95516.97;;;12.15;66.01
60874;BME280;46715;40.642;-7.920;2023-04-19T03:45:03;95519.69;;;12.09;66.18
60874;BME280;46715;40.642;-7.920;2023-04-19T03:47:07;95516.44;;;12.04;66.28
60874;BME280;46715;40.642;-7.920;2023-04-19T03:49:14;95516.22;;;12.00;66.26
60874;BME280;46715;40.642;-7.920;2023-04-19T03:51:18;95519.91;;;11.99;66.78
60874;BME280;46715;40.642;-7.920;2023-04-19T03:53:18;95519.13;;;11.99;66.60
60874;BME280;46715;40.642;-7.920;2023-04-19T03:55:19;95510.84;;;11.97;66.57
60874;BME280;46715;40.642;-7.920;2023-04-19T03:57:20;95518.38;;;11.98;66.41
60874;BME280;46715;40.642;-7.920;2023-04-19T03:59:22;95514.97;;;11.98;66.33
60874;BME280;46715;40.642;-7.920;2023-04-19T04:01:25;95518.84;;;12.00;66.28
60874;BME280;46715;40.642;-7.920;2023-04-19T04:03:28;95513.16;;;11.98;66.39
60874;BME280;46715;40.642;-7.920;2023-04-19T04:05:29;95513.53;;;11.91;65.97
60874;BME280;46715;40.642;-7.920;2023-04-19T04:07:29;95514.09;;;11.88;66.35
60874;BME280;46715;40.642;-7.920;2023-04-19T04:09:31;95515.94;;;11.88;66.27
60874;BME280;46715;40.642;-7.920;2023-04-19T04:11:34;95516.81;;;11.83;66.45
60874;BME280;46715;40.642;-7.920;2023-04-19T04:13:35;95524.16;;;11.81;66.27
60874;BME280;46715;40.642;-7.920;2023-04-19T04:15:59;95519.81;;;11.76;66.94
60874;BME280;46715;40.642;-7.920;2023-04-19T04:18:00;95525.34;;;11.75;66.83
60874;BME280;46715;40.642;-7.920;2023-04-19T04:20:00;95523.31;;;11.72;67.04
60874;BME280;46715;40.642;-7.920;2023-04-19T04:22:05;95519.44;;;11.69;66.92
60874;BME280;46715;40.642;-7.920;2023-04-19T04:24:09;95526.78;;;11.67;67.19
60874;BME280;46715;40.642;-7.920;2023-04-19T04:26:30;95526.13;;;11.62;67.20
60874;BME280;46715;40.642;-7.920;2023-04-19T04:29:02;95528.56;;;11.58;67.80
60874;BME280;46715;40.642;-7.920;2023-04-19T04:31:04;95530.97;;;11.54;67.69
60874;BME280;46715;40.642;-7.920;2023-04-19T04:33:07;95530.19;;;11.54;67.72
60874;BME280;46715;40.642;-7.920;2023-04-19T04:35:08;95532.00;;;11.53;67.41
60874;BME280;46715;40.642;-7.920;2023-04-19T04:37:16;95530.97;;;11.54;67.65
60874;BME280;46715;40.642;-7.920;2023-04-19T04:39:17;95530.28;;;11.49;67.64
60874;BME280;46715;40.642;-7.920;2023-04-19T04:41:18;95526.13;;;11.48;67.80
60874;BME280;46715;40.642;-7.920;2023-04-19T04:43:24;95527.00;;;11.43;67.79
60874;BME280;46715;40.642;-7.920;2023-04-19T04:45:25;95534.06;;;11.42;67.93
60874;BME280;46715;40.642;-7.920;2023-04-19T04:47:29;95535.03;;;11.33;67.82
60874;BME280;46715;40.642;-7.920;2023-04-19T04:49:32;95536.38;;;11.30;68.36
60874;BME280;46715;40.642;-7.920;2023-04-19T04:51:34;95535.69;;;11.24;68.21
60874;BME280;46715;40.642;-7.920;2023-04-19T04:53:35;95534.59;;;11.25;68.46
60874;BME280;46715;40.642;-7.920;2023-04-19T04:55:38;95530.19;;;11.26;68.67
60874;BME280;46715;40.642;-7.920;2023-04-19T04:57:39;95535.88;;;11.28;68.96
60874;BME280;46715;40.642;-7.920;2023-04-19T04:59:43;95540.63;;;11.26;68.82
60874;BME280;46715;40.642;-7.920;2023-04-19T05:01:45;95527.38;;;11.22;68.78
60874;BME280;46715;40.642;-7.920;2023-04-19T05:03:47;95530.06;;;11.17;69.37
60874;BME280;46715;40.642;-7.920;2023-04-19T05:05:51;95527.06;;;11.10;69.08
60874;BME280;46715;40.642;-7.920;2023-04-19T05:07:53;95533.91;;;11.06;69.25
60874;BME280;46715;40.642;-7.920;2023-04-19T05:09:53;95535.84;;;11.00;69.33
60874;BME280;46715;40.642;-7.920;2023-04-19T05:11:58;95530.50;;;10.91;69.29
60874;BME280;46715;40.642;-7.920;2023-04-19T05:13:59;95533.19;;;10.86;69.38
60874;BME280;46715;40.642;-7.920;2023-04-19T05:16:00;95537.16;;;10.84;69.75
60874;BME280;46715;40.642;-7.920;2023-04-19T05:18:01;95538.47;;;10.81;69.85
60874;BME280;46715;40.642;-7.920;2023-04-19T05:20:05;95539.56;;;10.80;69.45
60874;BME280;46715;40.642;-7.920;2023-04-19T05:22:06;95537.25;;;10.79;69.75
60874;BME280;46715;40.642;-7.920;2023-04-19T05:24:07;95541.19;;;10.76;69.71
60874;BME280;46715;40.642;-7.920;2023-04-19T05:26:10;95542.25;;;10.75;69.91
60874;BME280;46715;40.642;-7.920;2023-04-19T05:28:13;95542.53;;;10.73;70.21
60874;BME280;46715;40.642;-7.920;2023-04-19T05:30:29;95547.53;;;10.70;70.33
60874;BME280;46715;40.642;-7.920;2023-04-19T05:32:30;95547.06;;;10.68;70.37
60874;BME280;46715;40.642;-7.920;2023-04-19T05:34:33;95551.75;;;10.66;70.24
60874;BME280;46715;40.642;-7.920;2023-04-19T05:36:34;95543.94;;;10.66;70.63
60874;BME280;46715;40.642;-7.920;2023-04-19T05:38:35;95549.72;;;10.63;70.50
60874;BME280;46715;40.642;-7.920;2023-04-19T05:40:36;95548.47;;;10.60;70.40
60874;BME280;46715;40.642;-7.920;2023-04-19T05:42:39;95553.50;;;10.56;70.78
60874;BME280;46715;40.642;-7.920;2023-04-19T05:44:40;95547.78;;;10.54;70.94
60874;BME280;46715;40.642;-7.920;2023-04-19T05:46:41;95549.59;;;10.54;70.91
60874;BME280;46715;40.642;-7.920;2023-04-19T05:48:45;95546.72;;;10.55;71.04
60874;BME280;46715;40.642;-7.920;2023-04-19T05:51:14;95551.66;;;10.57;71.30
60874;BME280;46715;40.642;-7.920;2023-04-19T05:53:37;95559.09;;;10.64;71.03
60874;BME280;46715;40.642;-7.920;2023-04-19T05:55:39;95553.25;;;10.72;70.84
60874;BME280;46715;40.642;-7.920;2023-04-19T05:57:40;95556.25;;;10.79;70.73
60874;BME280;46715;40.642;-7.920;2023-04-19T05:59:41;95559.84;;;10.83;70.52
60874;BME280;46715;40.642;-7.920;2023-04-19T06:01:42;95557.16;;;10.88;69.97
60874;BME280;46715;40.642;-7.920;2023-04-19T06:03:43;95560.75;;;10.93;69.93
60874;BME280;46715;40.642;-7.920;2023-04-19T06:05:44;95558.63;;;10.95;69.65
60874;BME280;46715;40.642;-7.920;2023-04-19T06:07:45;95566.94;;;10.97;69.20
60874;BME280;46715;40.642;-7.920;2023-04-19T06:09:45;95566.09;;;11.01;69.13
60874;BME280;46715;40.642;-7.920;2023-04-19T06:11:46;95561.06;;;11.05;69.29
60874;BME280;46715;40.642;-7.920;2023-04-19T06:13:47;95566.69;;;11.12;69.13
60874;BME280;46715;40.642;-7.920;2023-04-19T06:15:48;95570.06;;;11.13;68.42
60874;BME280;46715;40.642;-7.920;2023-04-19T06:17:49;95563.78;;;11.14;68.31
60874;BME280;46715;40.642;-7.920;2023-04-19T06:19:50;95564.47;;;11.19;68.35
60874;BME280;46715;40.642;-7.920;2023-04-19T06:21:50;95563.91;;;11.22;67.43
60874;BME280;46715;40.642;-7.920;2023-04-19T06:23:51;95565.16;;;11.25;67.24
60874;BME280;46715;40.642;-7.920;2023-04-19T06:25:52;95564.59;;;11.28;67.39
60874;BME280;46715;40.642;-7.920;2023-04-19T06:27:52;95559.88;;;11.44;67.10
60874;BME280;46715;40.642;-7.920;2023-04-19T06:29:53;95573.78;;;11.81;67.34
60874;BME280;46715;40.642;-7.920;2023-04-19T06:31:54;95569.69;;;12.31;66.01
60874;BME280;46715;40.642;-7.920;2023-04-19T06:33:55;95576.28;;;12.65;65.10
60874;BME280;46715;40.642;-7.920;2023-04-19T06:35:55;95575.47;;;12.87;64.11
60874;BME280;46715;40.642;-7.920;2023-04-19T06:37:56;95582.28;;;13.10;63.48
60874;BME280;46715;40.642;-7.920;2023-04-19T06:39:56;95581.69;;;13.45;62.26
60874;BME280;46715;40.642;-7.920;2023-04-19T06:41:57;95583.00;;;13.65;61.91
60874;BME280;46715;40.642;-7.920;2023-04-19T06:43:58;95585.03;;;13.77;61.26
60874;BME280;46715;40.642;-7.920;2023-04-19T06:45:59;95579.84;;;13.86;60.92
60874;BME280;46715;40.642;-7.920;2023-04-19T06:47:59;95580.63;;;13.95;60.27
60874;BME280;46715;40.642;-7.920;2023-04-19T06:50:01;95589.59;;;14.03;59.72
60874;BME280;46715;40.642;-7.920;2023-04-19T06:52:02;95590.84;;;14.14;59.87
60874;BME280;46715;40.642;-7.920;2023-04-19T06:54:04;95594.88;;;14.29;59.12
60874;BME280;46715;40.642;-7.920;2023-04-19T06:56:05;95594.28;;;14.49;57.52
60874;BME280;46715;40.642;-7.920;2023-04-19T06:58:05;95591.84;;;14.79;55.29
60874;BME280;46715;40.642;-7.920;2023-04-19T07:00:09;95591.84;;;14.97;54.96
60874;BME280;46715;40.642;-7.920;2023-04-19T07:02:10;95585.13;;;15.17;54.05
60874;BME280;46715;40.642;-7.920;2023-04-19T07:04:12;95596.69;;;15.33;53.42
60874;BME280;46715;40.642;-7.920;2023-04-19T07:06:12;95587.38;;;15.45;52.60
60874;BME280;46715;40.642;-7.920;2023-04-19T07:08:13;95591.06;;;15.52;52.66
60874;BME280;46715;40.642;-7.920;2023-04-19T07:10:14;95592.72;;;15.66;52.34
60874;BME280;46715;40.642;-7.920;2023-04-19T07:12:15;95595.63;;;15.73;52.73
60874;BME280;46715;40.642;-7.920;2023-04-19T07:14:16;95595.63;;;15.82;53.12
60874;BME280;46715;40.642;-7.920;2023-04-19T07:16:18;95589.69;;;15.94;53.05
60874;BME280;46715;40.642;-7.920;2023-04-19T07:18:19;95587.66;;;15.99;52.82
60874;BME280;46715;40.642;-7.920;2023-04-19T07:20:20;95587.91;;;16.07;52.77
60874;BME280;46715;40.642;-7.920;2023-04-19T07:22:21;95591.13;;;16.12;52.68
60874;BME280;46715;40.642;-7.920;2023-04-19T07:24:21;95594.50;;;16.22;53.12
60874;BME280;46715;40.642;-7.920;2023-04-19T07:26:23;95591.16;;;16.33;51.81
60874;BME280;46715;40.642;-7.920;2023-04-19T07:28:24;95594.00;;;16.49;52.11
60874;BME280;46715;40.642;-7.920;2023-04-19T07:30:25;95593.41;;;16.65;51.48
60874;BME280;46715;40.642;-7.920;2023-04-19T07:32:25;95596.53;;;16.79;51.47
60874;BME280;46715;40.642;-7.920;2023-04-19T07:34:26;95594.44;;;16.94;51.44
60874;BME280;46715;40.642;-7.920;2023-04-19T07:36:27;95589.53;;;17.17;51.24
60874;BME280;46715;40.642;-7.920;2023-04-19T07:38:29;95590.28;;;17.51;49.72
60874;BME280;46715;40.642;-7.920;2023-04-19T07:40:30;95595.50;;;18.09;48.14
60874;BME280;46715;40.642;-7.920;2023-04-19T07:42:31;95597.41;;;18.78;46.46
60874;BME280;46715;40.642;-7.920;2023-04-19T07:44:31;95593.00;;;20.38;44.91
60874;BME280;46715;40.642;-7.920;2023-04-19T07:46:32;95593.28;;;22.61;39.14
60874;BME280;46715;40.642;-7.920;2023-04-19T07:48:32;95583.66;;;24.84;35.11
60874;BME280;46715;40.642;-7.920;2023-04-19T07:50:33;95584.38;;;26.68;32.42
60874;BME280;46715;40.642;-7.920;2023-04-19T07:52:34;95576.50;;;28.19;28.75
60874;BME280;46715;40.642;-7.920;2023-04-19T07:54:34;95577.81;;;29.03;27.93
60874;BME280;46715;40.642;-7.920;2023-04-19T07:56:35;95577.47;;;30.03;26.69
60874;BME280;46715;40.642;-7.920;2023-04-19T07:58:36;95576.34;;;30.45;24.72
60874;BME280;46715;40.642;-7.920;2023-04-19T08:00:37;95581.19;;;31.10;25.34
60874;BME280;46715;40.642;-7.920;2023-04-19T08:02:38;95573.22;;;31.72;23.67
60874;BME280;46715;40.642;-7.920;2023-04-19T08:04:38;95579.06;;;32.46;22.24
60874;BME280;46715;40.642;-7.920;2023-04-19T08:06:39;95577.94;;;32.86;22.00
60874;BME280;46715;40.642;-7.920;2023-04-19T08:08:40;95571.06;;;33.23;21.74
60874;BME280;46715;40.642;-7.920;2023-04-19T08:10:41;95570.63;;;32.99;20.97
60874;BME280;46715;40.642;-7.920;2023-04-19T08:12:42;95580.34;;;32.84;21.49
60874;BME280;46715;40.642;-7.920;2023-04-19T08:14:43;95571.91;;;33.20;20.55
60874;BME280;46715;40.642;-7.920;2023-04-19T08:16:44;95566.50;;;33.46;21.17
60874;BME280;46715;40.642;-7.920;2023-04-19T08:18:47;95567.59;;;33.96;21.19
60874;BME280;46715;40.642;-7.920;2023-04-19T08:20:51;95563.28;;;34.43;18.85
60874;BME280;46715;40.642;-7.920;2023-04-19T08:22:51;95570.94;;;33.40;19.99
60874;BME280;46715;40.642;-7.920;2023-04-19T08:24:53;95567.88;;;33.76;20.10
60874;BME280;46715;40.642;-7.920;2023-04-19T08:26:54;95575.91;;;33.03;20.54
60874;BME280;46715;40.642;-7.920;2023-04-19T08:28:55;95583.03;;;32.71;21.20
60874;BME280;46715;40.642;-7.920;2023-04-19T08:30:59;95574.72;;;33.17;20.41
60874;BME280;46715;40.642;-7.920;2023-04-19T08:33:00;95580.34;;;32.84;20.89
60874;BME280;46715;40.642;-7.920;2023-04-19T08:35:01;95581.09;;;32.97;21.24
60874;BME280;46715;40.642;-7.920;2023-04-19T08:37:02;95580.69;;;32.99;20.77
60874;BME280;46715;40.642;-7.920;2023-04-19T08:39:05;95581.19;;;33.71;19.76
60874;BME280;46715;40.642;-7.920;2023-04-19T08:41:06;95582.34;;;34.40;19.40
60874;BME280;46715;40.642;-7.920;2023-04-19T08:43:06;95587.47;;;34.38;19.33
60874;BME280;46715;40.642;-7.920;2023-04-19T08:45:07;95585.44;;;34.51;19.56
60874;BME280;46715;40.642;-7.920;2023-04-19T08:47:10;95586.94;;;34.74;18.85
60874;BME280;46715;40.642;-7.920;2023-04-19T08:49:12;95592.06;;;34.15;19.01
60874;BME280;46715;40.642;-7.920;2023-04-19T08:51:14;95590.00;;;34.32;19.68
60874;BME280;46715;40.642;-7.920;2023-04-19T08:53:16;95588.72;;;34.68;19.27
60874;BME280;46715;40.642;-7.920;2023-04-19T08:55:19;95589.78;;;33.91;19.21
60874;BME280;46715;40.642;-7.920;2023-04-19T08:57:19;95595.91;;;34.40;19.47
60874;BME280;46715;40.642;-7.920;2023-04-19T08:59:27;95594.38;;;34.83;18.39
60874;BME280;46715;40.642;-7.920;2023-04-19T09:01:32;95590.91;;;35.14;17.78
60874;BME280;46715;40.642;-7.920;2023-04-19T09:03:33;95597.25;;;35.61;17.71
60874;BME280;46715;40.642;-7.920;2023-04-19T09:05:34;95604.47;;;35.64;17.64
60874;BME280;46715;40.642;-7.920;2023-04-19T09:07:34;95603.88;;;34.65;18.18
60874;BME280;46715;40.642;-7.920;2023-04-19T09:09:35;95602.72;;;34.44;18.95
60874;BME280;46715;40.642;-7.920;2023-04-19T09:11:36;95601.19;;;34.97;18.50
60874;BME280;46715;40.642;-7.920;2023-04-19T09:13:40;95601.31;;;35.65;18.42
60874;BME280;46715;40.642;-7.920;2023-04-19T09:15:43;95600.34;;;36.00;17.56
60874;BME280;46715;40.642;-7.920;2023-04-19T09:17:44;95600.94;;;36.04;17.59
60874;BME280;46715;40.642;-7.920;2023-04-19T09:20:03;95609.31;;;34.65;17.88
60874;BME280;46715;40.642;-7.920;2023-04-19T09:22:16;95616.16;;;34.79;18.81
60874;BME280;46715;40.642;-7.920;2023-04-19T09:24:17;95615.06;;;35.30;18.34
60874;BME280;46715;40.642;-7.920;2023-04-19T09:26:17;95613.56;;;35.79;16.52
60874;BME280;46715;40.642;-7.920;2023-04-19T09:28:18;95604.59;;;35.42;15.63
60874;BME280;46715;40.642;-7.920;2023-04-19T09:30:20;95608.59;;;35.87;16.26
60874;BME280;46715;40.642;-7.920;2023-04-19T09:32:47;95608.91;;;35.89;16.55
60874;BME280;46715;40.642;-7.920;2023-04-19T09:34:54;95605.75;;;35.00;15.63
60874;BME280;46715;40.642;-7.920;2023-04-19T09:36:56;95608.47;;;34.78;15.53
60874;BME280;46715;40.642;-7.920;2023-04-19T09:38:56;95610.63;;;35.46;16.44
60874;BME280;46715;40.642;-7.920;2023-04-19T09:41:05;95612.56;;;35.45;15.35
60874;BME280;46715;40.642;-7.920;2023-04-19T09:43:06;95618.50;;;34.46;15.05
60874;BME280;46715;40.642;-7.920;2023-04-19T09:45:07;95614.91;;;34.93;14.38
60874;BME280;46715;40.642;-7.920;2023-04-19T09:47:24;95623.59;;;34.44;15.38
60874;BME280;46715;40.642;-7.920;2023-04-19T09:49:24;95611.25;;;35.19;14.56
60874;BME280;46715;40.642;-7.920;2023-04-19T09:51:38;95621.97;;;34.46;13.17
60874;BME280;46715;40.642;-7.920;2023-04-19T09:53:45;95619.06;;;34.06;14.17
60874;BME280;46715;40.642;-7.920;2023-04-19T09:55:47;95626.06;;;34.29;14.76
60874;BME280;46715;40.642;-7.920;2023-04-19T09:57:48;95627.19;;;32.77;15.60
60874;BME280;46715;40.642;-7.920;2023-04-19T09:59:48;95629.41;;;32.36;16.67
60874;BME280;46715;40.642;-7.920;2023-04-19T10:03:52;95644.31;;;33.12;14.44
60874;BME280;46715;40.642;-7.920;2023-04-19T10:06:00;95637.44;;;33.24;14.42
60874;BME280;46715;40.642;-7.920;2023-04-19T10:08:01;95636.22;;;33.51;14.58
60874;BME280;46715;40.642;-7.920;2023-04-19T10:10:02;95639.97;;;32.89;14.97
60874;BME280;46715;40.642;-7.920;2023-04-19T10:12:05;95642.00;;;32.98;15.23
60874;BME280;46715;40.642;-7.920;2023-04-19T10:14:07;95645.22;;;33.61;15.81
60874;BME280;46715;40.642;-7.920;2023-04-19T10:16:09;95635.50;;;34.46;14.44
60874;BME280;46715;40.642;-7.920;2023-04-19T10:18:10;95639.16;;;33.57;14.82
60874;BME280;46715;40.642;-7.920;2023-04-19T10:20:12;95630.97;;;34.08;14.82
60874;BME280;46715;40.642;-7.920;2023-04-19T10:22:19;95634.47;;;34.75;14.83
60874;BME280;46715;40.642;-7.920;2023-04-19T10:24:30;95637.09;;;35.10;15.61
60874;BME280;46715;40.642;-7.920;2023-04-19T10:26:30;95644.22;;;35.58;14.44
60874;BME280;46715;40.642;-7.920;2023-04-19T10:28:52;95637.06;;;34.79;13.44
60874;BME280;46715;40.642;-7.920;2023-04-19T10:30:54;95639.22;;;32.89;14.46
60874;BME280;46715;40.642;-7.920;2023-04-19T10:33:03;95641.97;;;32.43;15.07
60874;BME280;46715;40.642;-7.920;2023-04-19T10:35:06;95633.47;;;32.57;14.83
60874;BME280;46715;40.642;-7.920;2023-04-19T10:37:11;95646.47;;;33.18;14.84
60874;BME280;46715;40.642;-7.920;2023-04-19T10:46:01;95639.63;;;32.87;16.15
60874;BME280;46715;40.642;-7.920;2023-04-19T10:48:05;95642.31;;;32.87;17.50